KLM965 EHAM-GMMN
Flight info
| Callsign | KLM965 |
|---|---|
| Flight time | N/A |
| Altitude | 23000 |
| Route | WOODY N872 CIV/N0453F350 DCT KOVIN DCT DUCRA DCT RESMI DCT DEKOD DCT DISAK DCT ARKIP DCT ARNAV DCT LMG DCT UVELI DCT OSMOB DCT ARVID DCT PPN/N0456F370 DCT NOLSA DCT ALEPO DCT VASUM DCT BANEV DCT BAN DCT PINAR DCT CJN L27 BLN DCT MGA DCT PIMOS DCT GALTO UB11 TUSOR |
| Aircraft | A320/M-SDE3FGHIRWY/LB1 |
Departure
| Time | 2026-05-06 05:28 |
|---|---|
| Airport | Amsterdam Airport Schiphol (EHAM) |
Arrival
| Time | N/A |
|---|---|
| Airport | Mohammed V International Airport (GMMN) |
| Time | Latitude | Longitude | Altitude | Speed | Heading |
|---|---|---|---|---|---|
| 2026-05-06 04:07 | 52.30430 | 4.76607 | -1 ft | 0 kts | 58° |
| 2026-05-06 05:17 | 52.30428 | 4.76602 | -1 ft | 3 kts | 59° |
| 2026-05-06 05:17 | 52.30419 | 4.76563 | -1 ft | 4 kts | 92° |
| 2026-05-06 05:17 | 52.30426 | 4.76523 | -1 ft | 4 kts | 131° |
| 2026-05-06 05:17 | 52.30436 | 4.76508 | -1 ft | 0 kts | 148° |
| 2026-05-06 05:21 | 52.30412 | 4.76533 | -1 ft | 4 kts | 148° |
| 2026-05-06 05:21 | 52.30368 | 4.76576 | -1 ft | 9 kts | 153° |
| 2026-05-06 05:21 | 52.30303 | 4.76546 | -1 ft | 15 kts | 229° |
| 2026-05-06 05:22 | 52.30246 | 4.76396 | -1 ft | 15 kts | 237° |
| 2026-05-06 05:22 | 52.30181 | 4.76227 | -1 ft | 23 kts | 238° |
| 2026-05-06 05:22 | 52.30096 | 4.76004 | -1 ft | 22 kts | 238° |
| 2026-05-06 05:22 | 52.30019 | 4.75803 | -1 ft | 20 kts | 238° |
| 2026-05-06 05:23 | 52.29949 | 4.75622 | -1 ft | 18 kts | 238° |
| 2026-05-06 05:23 | 52.29888 | 4.75459 | -1 ft | 16 kts | 238° |
| 2026-05-06 05:23 | 52.29866 | 4.75150 | -1 ft | 19 kts | 309° |
| 2026-05-06 05:24 | 52.29957 | 4.74980 | -1 ft | 20 kts | 311° |
| 2026-05-06 05:24 | 52.30053 | 4.74805 | 0 ft | 21 kts | 312° |
| 2026-05-06 05:24 | 52.30139 | 4.74645 | 10 ft | 16 kts | 311° |
| 2026-05-06 05:24 | 52.30213 | 4.74507 | 10 ft | 17 kts | 311° |
| 2026-05-06 05:25 | 52.30282 | 4.74378 | 9 ft | 14 kts | 310° |
| 2026-05-06 05:25 | 52.30348 | 4.74254 | -1 ft | 10 kts | 311° |
| 2026-05-06 05:25 | 52.30376 | 4.74201 | -1 ft | 9 kts | 310° |
| 2026-05-06 05:25 | 52.30420 | 4.74064 | -1 ft | 11 kts | 270° |
| 2026-05-06 05:26 | 52.30406 | 4.73946 | -1 ft | 12 kts | 264° |
| 2026-05-06 05:26 | 52.30411 | 4.73805 | -3 ft | 9 kts | 276° |
| 2026-05-06 05:26 | 52.30457 | 4.73761 | -3 ft | 8 kts | 357° |
| 2026-05-06 05:26 | 52.30494 | 4.73764 | -3 ft | 7 kts | 3° |
| 2026-05-06 05:27 | 52.30508 | 4.73766 | -3 ft | 0 kts | 3° |
| 2026-05-06 05:27 | 52.30509 | 4.73766 | -3 ft | 0 kts | 3° |
| 2026-05-06 05:27 | 52.30515 | 4.73766 | -3 ft | 10 kts | 3° |
| 2026-05-06 05:27 | 52.30846 | 4.73796 | -1 ft | 81 kts | 3° |
| 2026-05-06 05:28 | 52.31608 | 4.73866 | -2 ft | 136 kts | 3° |
| 2026-05-06 05:28 | 52.32671 | 4.73949 | 246 ft | 156 kts | 3° |
| 2026-05-06 05:28 | 52.33733 | 4.74175 | 954 ft | 153 kts | 18° |
| 2026-05-06 05:28 | 52.34733 | 4.74758 | 1635 ft | 153 kts | 24° |
| 2026-05-06 05:29 | 52.35761 | 4.75449 | 2024 ft | 169 kts | 25° |
| 2026-05-06 05:29 | 52.36879 | 4.76365 | 2279 ft | 191 kts | 42° |
| 2026-05-06 05:29 | 52.37512 | 4.78343 | 2649 ft | 209 kts | 84° |
| 2026-05-06 05:29 | 52.37307 | 4.80742 | 3368 ft | 216 kts | 99° |
| 2026-05-06 05:30 | 52.36869 | 4.83113 | 4087 ft | 224 kts | 117° |
| 2026-05-06 05:30 | 52.35682 | 4.84829 | 4680 ft | 244 kts | 155° |
| 2026-05-06 05:30 | 52.33928 | 4.85382 | 5010 ft | 270 kts | 174° |
| 2026-05-06 05:30 | 52.32015 | 4.85408 | 5687 ft | 279 kts | 180° |
| 2026-05-06 05:31 | 52.30061 | 4.85258 | 6488 ft | 283 kts | 182° |
| 2026-05-06 05:31 | 52.28088 | 4.85077 | 7276 ft | 285 kts | 182° |
| 2026-05-06 05:31 | 52.26103 | 4.84923 | 8095 ft | 287 kts | 182° |
| 2026-05-06 05:31 | 52.24100 | 4.84806 | 8909 ft | 289 kts | 181° |
| 2026-05-06 05:32 | 52.22081 | 4.84724 | 9716 ft | 291 kts | 181° |
| 2026-05-06 05:32 | 52.20028 | 4.84665 | 10228 ft | 304 kts | 181° |
| 2026-05-06 05:32 | 52.17831 | 4.84616 | 10411 ft | 327 kts | 181° |
| 2026-05-06 05:32 | 52.15480 | 4.84568 | 10571 ft | 349 kts | 181° |
| 2026-05-06 05:33 | 52.13015 | 4.84521 | 11046 ft | 358 kts | 181° |
| 2026-05-06 05:33 | 52.10532 | 4.84476 | 11648 ft | 364 kts | 180° |
| 2026-05-06 05:33 | 52.07984 | 4.84430 | 12279 ft | 368 kts | 180° |
| 2026-05-06 05:33 | 52.05398 | 4.84380 | 12895 ft | 373 kts | 181° |
| 2026-05-06 05:34 | 52.02797 | 4.83997 | 13490 ft | 379 kts | 191° |
| 2026-05-06 05:34 | 52.00255 | 4.82820 | 14060 ft | 382 kts | 202° |
| 2026-05-06 05:34 | 51.97842 | 4.80991 | 14675 ft | 384 kts | 206° |
| 2026-05-06 05:34 | 51.95441 | 4.79092 | 15332 ft | 384 kts | 206° |
| 2026-05-06 05:35 | 51.93032 | 4.77202 | 15989 ft | 385 kts | 205° |
| 2026-05-06 05:35 | 51.90709 | 4.75390 | 16593 ft | 386 kts | 205° |
| 2026-05-06 05:35 | 51.88281 | 4.73506 | 17227 ft | 388 kts | 205° |
| 2026-05-06 05:35 | 51.85846 | 4.71614 | 17870 ft | 389 kts | 205° |
| 2026-05-06 05:36 | 51.83402 | 4.69709 | 18452 ft | 390 kts | 205° |
| 2026-05-06 05:36 | 51.80952 | 4.67799 | 18971 ft | 392 kts | 205° |
| 2026-05-06 05:36 | 51.78488 | 4.65880 | 19480 ft | 395 kts | 204° |
| 2026-05-06 05:36 | 51.75998 | 4.63944 | 19974 ft | 397 kts | 205° |
| 2026-05-06 05:37 | 51.73498 | 4.62003 | 20448 ft | 400 kts | 205° |
| 2026-05-06 05:37 | 51.70986 | 4.60052 | 20915 ft | 402 kts | 205° |
| 2026-05-06 05:37 | 51.68451 | 4.58090 | 21369 ft | 405 kts | 205° |
| 2026-05-06 05:37 | 51.65908 | 4.56125 | 21813 ft | 407 kts | 205° |
| 2026-05-06 05:38 | 51.63343 | 4.54144 | 22257 ft | 410 kts | 204° |
| 2026-05-06 05:38 | 51.60763 | 4.52151 | 22669 ft | 413 kts | 205° |
| 2026-05-06 05:38 | 51.58203 | 4.50176 | 23091 ft | 415 kts | 205° |
| 2026-05-06 05:38 | 51.55591 | 4.48168 | 23483 ft | 417 kts | 204° |
| 2026-05-06 05:39 | 51.52963 | 4.46154 | 23808 ft | 420 kts | 204° |
| 2026-05-06 05:39 | 51.50322 | 4.44131 | 24136 ft | 422 kts | 205° |
| 2026-05-06 05:39 | 51.47659 | 4.42092 | 24456 ft | 424 kts | 205° |
| 2026-05-06 05:39 | 51.44985 | 4.40046 | 24757 ft | 427 kts | 205° |
| 2026-05-06 05:40 | 51.42302 | 4.37992 | 25051 ft | 429 kts | 205° |
| 2026-05-06 05:40 | 51.39601 | 4.35922 | 25363 ft | 431 kts | 205° |
| 2026-05-06 05:40 | 51.36887 | 4.33850 | 25652 ft | 434 kts | 205° |
| 2026-05-06 05:40 | 51.34148 | 4.31767 | 25937 ft | 436 kts | 205° |
| 2026-05-06 05:41 | 51.31398 | 4.29682 | 26217 ft | 438 kts | 205° |
| 2026-05-06 05:41 | 51.28638 | 4.27592 | 26494 ft | 441 kts | 205° |
| 2026-05-06 05:41 | 51.25856 | 4.25485 | 26765 ft | 443 kts | 205° |
| 2026-05-06 05:41 | 51.23068 | 4.23374 | 27034 ft | 445 kts | 205° |
| 2026-05-06 05:42 | 51.20268 | 4.21254 | 27293 ft | 447 kts | 205° |
| 2026-05-06 05:42 | 51.17485 | 4.19151 | 27538 ft | 449 kts | 204° |
| 2026-05-06 05:42 | 51.14570 | 4.17333 | 27790 ft | 450 kts | 198° |
| 2026-05-06 05:42 | 51.11603 | 4.15703 | 28024 ft | 452 kts | 198° |
| 2026-05-06 05:43 | 51.08615 | 4.14066 | 28260 ft | 454 kts | 198° |
| 2026-05-06 05:43 | 51.05623 | 4.12429 | 28485 ft | 456 kts | 198° |
| 2026-05-06 05:43 | 51.02618 | 4.10782 | 28702 ft | 458 kts | 198° |
| 2026-05-06 05:43 | 50.99603 | 4.09131 | 28900 ft | 459 kts | 198° |
| 2026-05-06 05:44 | 50.96575 | 4.07476 | 29167 ft | 459 kts | 198° |
| 2026-05-06 05:44 | 50.93556 | 4.05828 | 29474 ft | 459 kts | 198° |
| 2026-05-06 05:44 | 50.90543 | 4.04188 | 29796 ft | 457 kts | 198° |
| 2026-05-06 05:44 | 50.87537 | 4.02547 | 30092 ft | 457 kts | 198° |
| 2026-05-06 05:45 | 50.84559 | 4.00801 | 30348 ft | 456 kts | 200° |
| 2026-05-06 05:45 | 50.81618 | 3.98939 | 30636 ft | 455 kts | 201° |
| 2026-05-06 05:45 | 50.78701 | 3.97012 | 30904 ft | 454 kts | 201° |
| 2026-05-06 05:45 | 50.75795 | 3.95074 | 31186 ft | 453 kts | 201° |
| 2026-05-06 05:46 | 50.72895 | 3.93156 | 31447 ft | 452 kts | 201° |
| 2026-05-06 05:46 | 50.69990 | 3.91263 | 31713 ft | 451 kts | 201° |
| 2026-05-06 05:46 | 50.67088 | 3.89404 | 31975 ft | 450 kts | 201° |
| 2026-05-06 05:46 | 50.64184 | 3.87567 | 32234 ft | 450 kts | 201° |
| 2026-05-06 05:47 | 50.61276 | 3.85734 | 32489 ft | 449 kts | 201° |
| 2026-05-06 05:47 | 50.58377 | 3.83907 | 32750 ft | 448 kts | 201° |
| 2026-05-06 05:47 | 50.55492 | 3.82066 | 33005 ft | 448 kts | 202° |
| 2026-05-06 05:47 | 50.52622 | 3.80158 | 33262 ft | 447 kts | 203° |
| 2026-05-06 05:48 | 50.49771 | 3.78201 | 33527 ft | 447 kts | 203° |
| 2026-05-06 05:48 | 50.46926 | 3.76218 | 33775 ft | 446 kts | 204° |
| 2026-05-06 05:48 | 50.44133 | 3.74270 | 33992 ft | 446 kts | 204° |
| 2026-05-06 05:48 | 50.41257 | 3.72282 | 34208 ft | 445 kts | 204° |
| 2026-05-06 05:49 | 50.38424 | 3.70343 | 34417 ft | 445 kts | 203° |
| 2026-05-06 05:49 | 50.35590 | 3.68418 | 34611 ft | 444 kts | 203° |
| 2026-05-06 05:49 | 50.32782 | 3.66526 | 34795 ft | 444 kts | 203° |
| 2026-05-06 05:49 | 50.29939 | 3.64612 | 34857 ft | 445 kts | 203° |
| 2026-05-06 05:50 | 50.24256 | 3.60784 | 34867 ft | 445 kts | 203° |
| 2026-05-06 05:50 | 50.18574 | 3.56958 | 34865 ft | 444 kts | 203° |
| 2026-05-06 05:51 | 50.12899 | 3.53147 | 34868 ft | 444 kts | 203° |
| 2026-05-06 05:51 | 50.07228 | 3.49353 | 34867 ft | 444 kts | 203° |
| 2026-05-06 05:52 | 50.01552 | 3.45562 | 34866 ft | 443 kts | 203° |
| 2026-05-06 05:52 | 49.95883 | 3.41785 | 34862 ft | 443 kts | 203° |
| 2026-05-06 05:53 | 49.90206 | 3.38014 | 34861 ft | 443 kts | 203° |
| 2026-05-06 05:53 | 49.84532 | 3.34245 | 34862 ft | 443 kts | 203° |
| 2026-05-06 05:54 | 49.78852 | 3.30491 | 34865 ft | 444 kts | 203° |
| 2026-05-06 05:54 | 49.73177 | 3.26748 | 34859 ft | 443 kts | 203° |
| 2026-05-06 05:55 | 49.67497 | 3.23008 | 34856 ft | 443 kts | 203° |
| 2026-05-06 05:55 | 49.61856 | 3.19311 | 34857 ft | 444 kts | 203° |
| 2026-05-06 05:56 | 49.56171 | 3.15602 | 34855 ft | 444 kts | 202° |
| 2026-05-06 05:56 | 49.50483 | 3.11884 | 34855 ft | 444 kts | 203° |
| 2026-05-06 05:57 | 49.45149 | 3.07149 | 34855 ft | 444 kts | 213° |
| 2026-05-06 05:57 | 49.40756 | 3.02670 | 34856 ft | 444 kts | 213° |
| 2026-05-06 05:58 | 49.35604 | 2.97442 | 34856 ft | 444 kts | 213° |
| 2026-05-06 05:58 | 49.30443 | 2.92223 | 34859 ft | 444 kts | 213° |
| 2026-05-06 05:59 | 49.25284 | 2.87028 | 34857 ft | 444 kts | 213° |
| 2026-05-06 05:59 | 49.20124 | 2.81825 | 34857 ft | 444 kts | 213° |
| 2026-05-06 06:00 | 49.14962 | 2.76636 | 34857 ft | 444 kts | 213° |
| 2026-05-06 06:00 | 49.09824 | 2.71495 | 34853 ft | 444 kts | 213° |
| 2026-05-06 06:01 | 49.04684 | 2.66367 | 34857 ft | 444 kts | 213° |
| 2026-05-06 06:01 | 48.99510 | 2.61211 | 34858 ft | 444 kts | 212° |
| 2026-05-06 06:02 | 48.94336 | 2.56070 | 34859 ft | 444 kts | 212° |
| 2026-05-06 06:02 | 48.89153 | 2.50933 | 34860 ft | 444 kts | 212° |
| 2026-05-06 06:03 | 48.83981 | 2.45819 | 34860 ft | 444 kts | 212° |
| 2026-05-06 06:03 | 48.78799 | 2.40708 | 34862 ft | 444 kts | 212° |
| 2026-05-06 06:04 | 48.73620 | 2.35623 | 34863 ft | 444 kts | 212° |
| 2026-05-06 06:04 | 48.68477 | 2.30560 | 34860 ft | 444 kts | 212° |
| 2026-05-06 06:05 | 48.63297 | 2.25480 | 34855 ft | 444 kts | 212° |
| 2026-05-06 06:05 | 48.58053 | 2.20569 | 34858 ft | 443 kts | 206° |
| 2026-05-06 06:06 | 48.52214 | 2.17684 | 34856 ft | 443 kts | 192° |
| 2026-05-06 06:06 | 48.46185 | 2.15749 | 34846 ft | 443 kts | 192° |
| 2026-05-06 06:07 | 48.40147 | 2.13805 | 34839 ft | 443 kts | 192° |
| 2026-05-06 06:07 | 48.34112 | 2.11865 | 34839 ft | 443 kts | 192° |
| 2026-05-06 06:08 | 48.28030 | 2.10436 | 34839 ft | 443 kts | 181° |
| 2026-05-06 06:08 | 48.21937 | 2.11348 | 34839 ft | 443 kts | 172° |
| 2026-05-06 06:09 | 48.15831 | 2.12663 | 34841 ft | 443 kts | 173° |
| 2026-05-06 06:09 | 48.09684 | 2.12499 | 34845 ft | 443 kts | 187° |
| 2026-05-06 06:10 | 48.03563 | 2.11301 | 34851 ft | 444 kts | 187° |
| 2026-05-06 06:10 | 47.97440 | 2.10108 | 34863 ft | 444 kts | 187° |
| 2026-05-06 06:11 | 47.91314 | 2.08938 | 34862 ft | 444 kts | 186° |
| 2026-05-06 06:11 | 47.85186 | 2.07787 | 34864 ft | 444 kts | 187° |
| 2026-05-06 06:12 | 47.79054 | 2.06621 | 34858 ft | 444 kts | 187° |
| 2026-05-06 06:12 | 47.72922 | 2.05453 | 34847 ft | 444 kts | 187° |
| 2026-05-06 06:13 | 47.66786 | 2.04291 | 34833 ft | 444 kts | 187° |
| 2026-05-06 06:13 | 47.60786 | 2.02177 | 34823 ft | 445 kts | 201° |
| 2026-05-06 06:14 | 47.55020 | 1.98811 | 34823 ft | 446 kts | 201° |
| 2026-05-06 06:14 | 47.49244 | 1.95459 | 34830 ft | 446 kts | 200° |
| 2026-05-06 06:15 | 47.43459 | 1.92125 | 34837 ft | 447 kts | 200° |
| 2026-05-06 06:15 | 47.37660 | 1.88788 | 34849 ft | 447 kts | 200° |
| 2026-05-06 06:16 | 47.32842 | 1.86021 | 34859 ft | 448 kts | 200° |
| 2026-05-06 06:16 | 47.27041 | 1.82690 | 34858 ft | 448 kts | 200° |
| 2026-05-06 06:17 | 47.21228 | 1.79361 | 34859 ft | 448 kts | 200° |
| 2026-05-06 06:17 | 47.15445 | 1.76075 | 34856 ft | 448 kts | 200° |
| 2026-05-06 06:18 | 47.09624 | 1.72798 | 34856 ft | 448 kts | 200° |
| 2026-05-06 06:18 | 47.03790 | 1.69531 | 34859 ft | 449 kts | 200° |
| 2026-05-06 06:19 | 47.00878 | 1.67895 | 34858 ft | 449 kts | 200° |
| 2026-05-06 06:20 | 46.86143 | 1.59657 | 34862 ft | 450 kts | 200° |
| 2026-05-06 06:20 | 46.80289 | 1.56404 | 34859 ft | 450 kts | 200° |
| 2026-05-06 06:21 | 46.74435 | 1.53155 | 34859 ft | 450 kts | 200° |
| 2026-05-06 06:21 | 46.68583 | 1.49912 | 34855 ft | 450 kts | 200° |
| 2026-05-06 06:22 | 46.62725 | 1.46677 | 34860 ft | 450 kts | 200° |
| 2026-05-06 06:22 | 46.56871 | 1.43439 | 34857 ft | 450 kts | 201° |
| 2026-05-06 06:23 | 46.51008 | 1.40209 | 34859 ft | 451 kts | 201° |
| 2026-05-06 06:23 | 46.45179 | 1.37008 | 34861 ft | 451 kts | 201° |
| 2026-05-06 06:24 | 46.39311 | 1.33796 | 34861 ft | 451 kts | 201° |
| 2026-05-06 06:24 | 46.33440 | 1.30591 | 34869 ft | 451 kts | 201° |
| 2026-05-06 06:25 | 46.27565 | 1.27390 | 34879 ft | 451 kts | 201° |
| 2026-05-06 06:26 | 46.18747 | 1.22601 | 34885 ft | 451 kts | 201° |
| 2026-05-06 06:26 | 46.12865 | 1.19411 | 34890 ft | 452 kts | 201° |
| 2026-05-06 06:27 | 46.06979 | 1.16217 | 34890 ft | 452 kts | 201° |
| 2026-05-06 06:27 | 46.01094 | 1.13042 | 34898 ft | 452 kts | 201° |
| 2026-05-06 06:28 | 45.95208 | 1.09876 | 34894 ft | 452 kts | 201° |
| 2026-05-06 06:28 | 45.89324 | 1.06713 | 34899 ft | 451 kts | 201° |
| 2026-05-06 06:29 | 45.83457 | 1.03490 | 34892 ft | 451 kts | 206° |
| 2026-05-06 06:29 | 45.78245 | 0.98572 | 34895 ft | 450 kts | 220° |
| 2026-05-06 06:30 | 45.73482 | 0.92850 | 34892 ft | 450 kts | 220° |
| 2026-05-06 06:30 | 45.68674 | 0.87102 | 34891 ft | 450 kts | 220° |
| 2026-05-06 06:31 | 45.63873 | 0.81369 | 34899 ft | 450 kts | 220° |
| 2026-05-06 06:31 | 45.59068 | 0.75644 | 34905 ft | 450 kts | 220° |
| 2026-05-06 06:32 | 45.54257 | 0.69937 | 34904 ft | 450 kts | 220° |
| 2026-05-06 06:32 | 45.49443 | 0.64247 | 34911 ft | 449 kts | 220° |
| 2026-05-06 06:33 | 45.44629 | 0.58559 | 34910 ft | 449 kts | 220° |
| 2026-05-06 06:33 | 45.39818 | 0.52879 | 34913 ft | 449 kts | 220° |
| 2026-05-06 06:34 | 45.35002 | 0.47206 | 34912 ft | 449 kts | 220° |
| 2026-05-06 06:34 | 45.30185 | 0.41550 | 34915 ft | 449 kts | 220° |
| 2026-05-06 06:35 | 45.25361 | 0.35914 | 34909 ft | 449 kts | 220° |
| 2026-05-06 06:35 | 45.20539 | 0.30274 | 34909 ft | 449 kts | 220° |
| 2026-05-06 06:36 | 45.15714 | 0.24648 | 34909 ft | 449 kts | 220° |
| 2026-05-06 06:36 | 45.10926 | 0.19076 | 34909 ft | 449 kts | 220° |
| 2026-05-06 06:37 | 45.06069 | 0.13439 | 34910 ft | 448 kts | 220° |
| 2026-05-06 06:37 | 45.01242 | 0.07851 | 34911 ft | 448 kts | 220° |
| 2026-05-06 06:38 | 44.96455 | 0.02317 | 34916 ft | 448 kts | 220° |
| 2026-05-06 06:38 | 44.91635 | -0.03238 | 34914 ft | 447 kts | 220° |
| 2026-05-06 06:39 | 44.86819 | -0.08774 | 34914 ft | 446 kts | 220° |
| 2026-05-06 06:39 | 44.82003 | -0.14298 | 34917 ft | 446 kts | 220° |
| 2026-05-06 06:40 | 44.77201 | -0.19809 | 34929 ft | 445 kts | 220° |
| 2026-05-06 06:40 | 44.72399 | -0.25304 | 34915 ft | 445 kts | 220° |
| 2026-05-06 06:41 | 44.67595 | -0.30776 | 34924 ft | 444 kts | 220° |
| 2026-05-06 06:41 | 44.62476 | -0.35631 | 34917 ft | 446 kts | 209° |
| 2026-05-06 06:42 | 44.56971 | -0.39674 | 34913 ft | 446 kts | 210° |
| 2026-05-06 06:42 | 44.51474 | -0.43715 | 34917 ft | 446 kts | 210° |
| 2026-05-06 06:43 | 44.45987 | -0.47744 | 34918 ft | 445 kts | 210° |
| 2026-05-06 06:43 | 44.40490 | -0.51756 | 34915 ft | 445 kts | 210° |
| 2026-05-06 06:44 | 44.35040 | -0.55730 | 34921 ft | 444 kts | 210° |
| 2026-05-06 06:44 | 44.29557 | -0.59728 | 34930 ft | 444 kts | 210° |
| 2026-05-06 06:45 | 44.24085 | -0.63713 | 34931 ft | 444 kts | 210° |
| 2026-05-06 06:45 | 44.18607 | -0.67691 | 34937 ft | 443 kts | 210° |
| 2026-05-06 06:46 | 44.13132 | -0.71658 | 34941 ft | 443 kts | 210° |
| 2026-05-06 06:46 | 44.07661 | -0.75601 | 34941 ft | 443 kts | 210° |
| 2026-05-06 06:47 | 44.02184 | -0.79541 | 34940 ft | 443 kts | 210° |
| 2026-05-06 06:47 | 43.96711 | -0.83482 | 34942 ft | 443 kts | 210° |
| 2026-05-06 06:48 | 43.91244 | -0.87411 | 34944 ft | 442 kts | 210° |
| 2026-05-06 06:48 | 43.85775 | -0.91326 | 34960 ft | 442 kts | 210° |
| 2026-05-06 06:49 | 43.80308 | -0.95230 | 34970 ft | 442 kts | 210° |
| 2026-05-06 06:49 | 43.74846 | -0.99126 | 34975 ft | 442 kts | 210° |
| 2026-05-06 06:50 | 43.69390 | -1.03022 | 34973 ft | 441 kts | 210° |
| 2026-05-06 06:50 | 43.63929 | -1.06903 | 34974 ft | 441 kts | 210° |
| 2026-05-06 06:51 | 43.58505 | -1.10748 | 34971 ft | 441 kts | 210° |
| 2026-05-06 06:51 | 43.53054 | -1.14610 | 34973 ft | 440 kts | 210° |
| 2026-05-06 06:52 | 43.47606 | -1.18458 | 34976 ft | 440 kts | 210° |
| 2026-05-06 06:52 | 43.42164 | -1.22290 | 34979 ft | 439 kts | 210° |
| 2026-05-06 06:53 | 43.36726 | -1.26112 | 34982 ft | 439 kts | 210° |
| 2026-05-06 06:53 | 43.31292 | -1.29928 | 34977 ft | 438 kts | 210° |
| 2026-05-06 06:54 | 43.25865 | -1.33732 | 34987 ft | 438 kts | 210° |
| 2026-05-06 06:54 | 43.20444 | -1.37515 | 34987 ft | 437 kts | 210° |
| 2026-05-06 06:55 | 43.15069 | -1.41267 | 34994 ft | 437 kts | 210° |
| 2026-05-06 06:55 | 43.09653 | -1.45036 | 34999 ft | 436 kts | 210° |
| 2026-05-06 06:56 | 43.04248 | -1.48794 | 35003 ft | 435 kts | 210° |
| 2026-05-06 06:56 | 42.98856 | -1.52554 | 35016 ft | 435 kts | 211° |
| 2026-05-06 06:57 | 42.93467 | -1.56305 | 35010 ft | 434 kts | 211° |
| 2026-05-06 06:57 | 42.88079 | -1.60039 | 35011 ft | 434 kts | 211° |
| 2026-05-06 06:58 | 42.82705 | -1.63748 | 35011 ft | 433 kts | 211° |
| 2026-05-06 06:58 | 42.77342 | -1.67453 | 35010 ft | 432 kts | 211° |
| 2026-05-06 06:59 | 42.71989 | -1.71136 | 35012 ft | 431 kts | 211° |
| 2026-05-06 06:59 | 42.66625 | -1.74769 | 35009 ft | 430 kts | 210° |
| 2026-05-06 07:00 | 42.62161 | -1.77754 | 35016 ft | 430 kts | 210° |
| 2026-05-06 07:00 | 42.56793 | -1.81340 | 35018 ft | 430 kts | 210° |
| 2026-05-06 07:01 | 42.51434 | -1.84925 | 35025 ft | 429 kts | 211° |
| 2026-05-06 07:01 | 42.46085 | -1.88512 | 35030 ft | 429 kts | 211° |
| 2026-05-06 07:02 | 42.40733 | -1.92085 | 35021 ft | 429 kts | 211° |
| 2026-05-06 07:02 | 42.35386 | -1.95654 | 35020 ft | 428 kts | 211° |
| 2026-05-06 07:03 | 42.30038 | -1.99208 | 35024 ft | 428 kts | 211° |
| 2026-05-06 07:03 | 42.24688 | -2.02757 | 35022 ft | 428 kts | 211° |
| 2026-05-06 07:04 | 42.19348 | -2.06300 | 35024 ft | 428 kts | 211° |
| 2026-05-06 07:04 | 42.14005 | -2.09837 | 35022 ft | 428 kts | 211° |
| 2026-05-06 07:05 | 42.08662 | -2.13351 | 35020 ft | 427 kts | 211° |
| 2026-05-06 07:05 | 42.03321 | -2.16859 | 35017 ft | 427 kts | 211° |
| 2026-05-06 07:06 | 41.97978 | -2.20372 | 35020 ft | 427 kts | 211° |
| 2026-05-06 07:06 | 41.92636 | -2.23876 | 35020 ft | 427 kts | 211° |
| 2026-05-06 07:07 | 41.87328 | -2.27348 | 35020 ft | 427 kts | 211° |
| 2026-05-06 07:07 | 41.81985 | -2.30847 | 35021 ft | 427 kts | 211° |
| 2026-05-06 07:08 | 41.76642 | -2.34330 | 35021 ft | 427 kts | 211° |
| 2026-05-06 07:08 | 41.71299 | -2.37808 | 35022 ft | 427 kts | 211° |
| 2026-05-06 07:09 | 41.65955 | -2.41279 | 35024 ft | 427 kts | 211° |
| 2026-05-06 07:09 | 41.60618 | -2.44744 | 35024 ft | 426 kts | 211° |
| 2026-05-06 07:10 | 41.55278 | -2.48205 | 35023 ft | 426 kts | 211° |
| 2026-05-06 07:10 | 41.49939 | -2.51652 | 35022 ft | 426 kts | 211° |
| 2026-05-06 07:11 | 41.44606 | -2.55094 | 35023 ft | 425 kts | 211° |
| 2026-05-06 07:11 | 41.39282 | -2.58525 | 35023 ft | 425 kts | 211° |
| 2026-05-06 07:12 | 41.33862 | -2.61683 | 35015 ft | 430 kts | 201° |
| 2026-05-06 07:12 | 41.27845 | -2.62580 | 35014 ft | 444 kts | 182° |
| 2026-05-06 07:13 | 41.21719 | -2.62018 | 35009 ft | 444 kts | 182° |
| 2026-05-06 07:13 | 41.15559 | -2.61466 | 35012 ft | 444 kts | 182° |
| 2026-05-06 07:14 | 41.09403 | -2.60916 | 35007 ft | 443 kts | 182° |
| 2026-05-06 07:14 | 41.03254 | -2.60373 | 35012 ft | 442 kts | 182° |
| 2026-05-06 07:15 | 40.97107 | -2.59829 | 35010 ft | 442 kts | 182° |
| 2026-05-06 07:15 | 40.90970 | -2.59276 | 35007 ft | 442 kts | 182° |
| 2026-05-06 07:16 | 40.84845 | -2.58718 | 35007 ft | 441 kts | 182° |
| 2026-05-06 07:16 | 40.78721 | -2.58162 | 35001 ft | 441 kts | 182° |
| 2026-05-06 07:17 | 40.72604 | -2.57604 | 34999 ft | 440 kts | 183° |
| 2026-05-06 07:17 | 40.66500 | -2.57060 | 34994 ft | 440 kts | 183° |
| 2026-05-06 07:18 | 40.60399 | -2.56521 | 34995 ft | 439 kts | 183° |
| 2026-05-06 07:18 | 40.54294 | -2.55972 | 34991 ft | 439 kts | 183° |
| 2026-05-06 07:19 | 40.48198 | -2.55424 | 34984 ft | 439 kts | 183° |
| 2026-05-06 07:19 | 40.42107 | -2.54889 | 34990 ft | 438 kts | 183° |
| 2026-05-06 07:20 | 40.36130 | -2.55301 | 34981 ft | 424 kts | 199° |
| 2026-05-06 07:20 | 40.30669 | -2.57738 | 34978 ft | 416 kts | 207° |
| 2026-05-06 07:21 | 40.25269 | -2.60457 | 34976 ft | 416 kts | 207° |
| 2026-05-06 07:21 | 40.19856 | -2.63160 | 34972 ft | 416 kts | 207° |
| 2026-05-06 07:22 | 40.14442 | -2.65867 | 34969 ft | 416 kts | 207° |
| 2026-05-06 07:22 | 40.09045 | -2.68580 | 34965 ft | 416 kts | 207° |
| 2026-05-06 07:23 | 40.03636 | -2.71280 | 34968 ft | 416 kts | 207° |
| 2026-05-06 07:23 | 39.99145 | -2.73518 | 34968 ft | 416 kts | 207° |